createdAt,value
2019-03-26T00:00:09.034Z,99346.47
2019-03-26T00:02:36.559Z,99362.06
2019-03-26T00:05:04.101Z,99353.37
2019-03-26T00:07:31.184Z,99351.23
2019-03-26T00:09:58.782Z,99352.87
2019-03-26T00:12:25.654Z,99360.92
2019-03-26T00:14:52.500Z,99356.33
2019-03-26T00:17:19.501Z,99351.40
2019-03-26T00:19:46.458Z,99349.45
2019-03-26T00:22:13.301Z,99345.98
2019-03-26T00:24:40.202Z,99342.04
2019-03-26T00:27:08.043Z,99342.22
2019-03-26T00:29:35.098Z,99348.47
2019-03-26T00:32:02.000Z,99347.62
2019-03-26T00:34:28.892Z,99341.39
2019-03-26T00:36:56.159Z,99352.55
2019-03-26T00:39:23.141Z,99349.77
2019-03-26T00:41:50.382Z,99363.55
2019-03-26T00:44:17.325Z,99359.92
2019-03-26T00:46:44.416Z,99365.03
2019-03-26T00:49:11.286Z,99373.87
2019-03-26T00:51:38.147Z,99370.42
2019-03-26T00:54:05.072Z,99370.42
2019-03-26T00:56:31.914Z,99374.05
2019-03-26T00:58:58.775Z,99371.25
2019-03-26T01:01:25.704Z,99375.69
2019-03-26T01:03:55.036Z,99373.38
2019-03-26T01:06:21.748Z,99378.13
2019-03-26T01:08:48.714Z,99375.52
2019-03-26T01:11:15.844Z,99387.82
2019-03-26T01:13:42.785Z,99385.83
2019-03-26T01:16:09.666Z,99389.77
2019-03-26T01:18:36.531Z,99391.41
2019-03-26T01:21:03.268Z,99393.71
2019-03-26T01:23:30.996Z,99395.52
2019-03-26T01:25:57.852Z,99406.16
2019-03-26T01:28:24.749Z,99415.02
2019-03-26T01:30:51.798Z,99414.17
2019-03-26T01:33:18.660Z,99411.41
2019-03-26T01:35:45.576Z,99417.28
2019-03-26T01:38:12.492Z,99413.30
2019-03-26T01:40:39.422Z,99407.24
2019-03-26T01:43:06.441Z,99425.78
2019-03-26T01:45:33.345Z,99426.09
2019-03-26T01:48:00.081Z,99433.91
2019-03-26T01:50:29.463Z,99431.59
2019-03-26T01:52:58.205Z,99432.40
2019-03-26T01:55:25.417Z,99427.40
2019-03-26T01:57:52.386Z,99433.27
2019-03-26T02:00:19.273Z,99425.72
2019-03-26T02:02:46.692Z,99436.83
2019-03-26T02:05:14.597Z,99438.46
2019-03-26T02:07:41.648Z,99434.53
2019-03-26T02:10:08.475Z,99436.71
2019-03-26T02:12:35.791Z,99432.91
2019-03-26T02:15:05.087Z,99438.83
2019-03-26T02:17:32.147Z,99437.16
2019-03-26T02:19:58.969Z,99439.77
2019-03-26T02:22:25.928Z,99451.44
2019-03-26T02:24:53.111Z,99454.20
2019-03-26T02:27:19.985Z,99455.86
2019-03-26T02:29:46.902Z,99451.94
2019-03-26T02:32:13.795Z,99462.94
2019-03-26T02:34:40.664Z,99458.50
2019-03-26T02:37:07.658Z,99463.12
2019-03-26T02:39:34.403Z,99457.56
2019-03-26T02:42:01.258Z,99463.77
2019-03-26T02:44:28.232Z,99470.00
2019-03-26T02:46:55.314Z,99469.88
2019-03-26T02:49:22.152Z,99473.95
2019-03-26T02:51:49.101Z,99468.37
2019-03-26T02:54:16.041Z,99470.75
2019-03-26T02:56:43.621Z,99483.41
2019-03-26T02:59:10.443Z,99484.84
2019-03-26T03:01:37.290Z,99490.09
2019-03-26T03:04:04.220Z,99491.41
2019-03-26T03:06:31.472Z,99495.34
2019-03-26T03:08:58.623Z,99503.88
2019-03-26T03:11:26.263Z,99507.66
2019-03-26T03:13:53.194Z,99514.91
2019-03-26T03:16:20.427Z,99510.34
2019-03-26T03:18:47.216Z,99524.09
2019-03-26T03:21:14.101Z,99517.59
2019-03-26T03:23:41.458Z,99518.60
2019-03-26T03:26:08.282Z,99528.78
2019-03-26T03:28:36.079Z,99536.03
2019-03-26T03:31:03.291Z,99538.98
2019-03-26T03:33:32.106Z,99542.29
2019-03-26T03:35:59.062Z,99543.92
2019-03-26T03:38:25.931Z,99540.12
2019-03-26T03:40:52.930Z,99551.78
2019-03-26T03:43:20.992Z,99558.97
2019-03-26T03:45:47.805Z,99564.52
2019-03-26T03:48:14.700Z,99569.46
2019-03-26T03:50:41.464Z,99564.22
2019-03-26T03:53:08.337Z,99566.16
2019-03-26T03:55:35.534Z,99567.20
2019-03-26T03:58:02.829Z,99572.80
2019-03-26T04:00:34.160Z,99575.78
2019-03-26T04:03:02.453Z,99581.54
2019-03-26T04:05:29.386Z,99581.05
2019-03-26T04:07:56.419Z,99580.69
2019-03-26T04:10:23.266Z,99587.23
2019-03-26T04:12:50.212Z,99598.36
2019-03-26T04:15:17.177Z,99596.41
2019-03-26T04:17:43.991Z,99604.66
2019-03-26T04:20:10.883Z,99607.41
2019-03-26T04:22:37.754Z,99615.05
2019-03-26T04:25:04.646Z,99618.02
2019-03-26T04:27:31.639Z,99621.63
2019-03-26T04:29:58.546Z,99625.55
2019-03-26T04:32:25.471Z,99630.63
2019-03-26T04:34:52.345Z,99623.88
2019-03-26T04:37:19.324Z,99631.75
2019-03-26T04:39:46.213Z,99634.23
2019-03-26T04:42:13.120Z,99637.69
2019-03-26T04:44:40.063Z,99642.63
2019-03-26T04:47:07.041Z,99644.73
2019-03-26T04:49:33.862Z,99646.38
2019-03-26T04:52:00.730Z,99649.30
2019-03-26T04:54:27.575Z,99653.73
2019-03-26T04:56:54.415Z,99654.41
2019-03-26T04:59:21.406Z,99647.50
2019-03-26T05:01:48.274Z,99640.98
2019-03-26T05:04:15.150Z,99645.86
2019-03-26T05:06:41.966Z,99644.56
2019-03-26T05:09:08.882Z,99647.36
2019-03-26T05:11:35.853Z,99653.73
2019-03-26T05:14:03.082Z,99651.17
2019-03-26T05:16:30.065Z,99644.27
2019-03-26T05:18:57.102Z,99649.00
2019-03-26T05:21:23.928Z,99648.48
2019-03-26T05:23:52.060Z,99647.88
2019-03-26T05:26:19.073Z,99647.39
2019-03-26T05:28:45.932Z,99649.41
2019-03-26T05:31:12.813Z,99651.24
2019-03-26T05:33:39.763Z,99650.80
2019-03-26T05:36:06.580Z,99648.79
2019-03-26T05:38:33.520Z,99651.89
2019-03-26T05:41:00.329Z,99659.80
2019-03-26T05:43:27.197Z,99669.00
2019-03-26T05:45:55.295Z,99664.32
2019-03-26T05:48:23.339Z,99662.59
2019-03-26T05:50:50.262Z,99666.74
2019-03-26T05:53:17.154Z,99664.30
2019-03-26T05:55:44.020Z,99669.23
2019-03-26T05:58:11.036Z,99674.98
2019-03-26T06:00:37.961Z,99667.56
2019-03-26T06:03:04.806Z,99664.91
2019-03-26T06:05:31.667Z,99670.16
2019-03-26T06:07:58.750Z,99669.66
2019-03-26T06:10:25.619Z,99671.02
2019-03-26T06:12:52.491Z,99666.53
2019-03-26T06:15:19.334Z,99666.66
2019-03-26T06:17:46.180Z,99664.29
2019-03-26T06:20:13.025Z,99672.81
2019-03-26T06:22:40.225Z,99667.44
2019-03-26T06:25:07.055Z,99676.53
2019-03-26T06:27:34.986Z,99679.80
2019-03-26T06:30:01.939Z,99678.45
2019-03-26T06:32:29.205Z,99677.80
2019-03-26T06:34:56.037Z,99680.44
2019-03-26T06:37:22.864Z,99681.06
2019-03-26T06:39:52.273Z,99677.44
2019-03-26T06:42:19.397Z,99677.12
2019-03-26T06:44:46.363Z,99680.55
2019-03-26T06:47:13.188Z,99690.86
2019-03-26T06:49:40.128Z,99691.38
2019-03-26T06:52:06.921Z,99686.50
2019-03-26T06:54:33.780Z,99690.98
2019-03-26T06:57:00.631Z,99691.25
2019-03-26T06:59:27.446Z,99691.98
2019-03-26T07:01:54.945Z,99695.92
2019-03-26T07:04:21.800Z,99697.74
2019-03-26T07:06:48.778Z,99700.51
2019-03-26T07:09:15.599Z,99701.52
2019-03-26T07:11:42.460Z,99704.06
2019-03-26T07:14:09.306Z,99705.93
2019-03-26T07:16:36.207Z,99707.11
2019-03-26T07:19:04.460Z,99711.25
2019-03-26T07:21:31.578Z,99700.07
2019-03-26T07:23:58.599Z,99700.41
2019-03-26T07:26:25.510Z,99700.54
2019-03-26T07:28:52.532Z,99704.32
2019-03-26T07:31:19.349Z,99698.03
2019-03-26T07:33:46.237Z,99698.22
2019-03-26T07:36:13.178Z,99701.14
2019-03-26T07:38:40.031Z,99698.55
2019-03-26T07:41:06.912Z,99702.92
2019-03-26T07:43:34.016Z,99697.27
2019-03-26T07:46:01.065Z,99707.20
2019-03-26T07:48:27.951Z,99700.08
2019-03-26T07:50:54.827Z,99698.70
2019-03-26T07:53:21.748Z,99694.13
2019-03-26T07:55:48.867Z,99692.11
2019-03-26T07:58:15.959Z,99698.97
2019-03-26T08:00:42.836Z,99696.27
2019-03-26T08:03:09.692Z,99702.28
2019-03-26T08:05:36.495Z,99702.62
2019-03-26T08:08:03.910Z,99709.31
2019-03-26T08:10:30.787Z,99701.05
2019-03-26T08:12:57.649Z,99710.41
2019-03-26T08:15:24.560Z,99703.17
2019-03-26T08:17:53.846Z,99712.45
2019-03-26T08:20:21.130Z,99704.56
2019-03-26T08:22:47.958Z,99698.24
2019-03-26T08:25:14.820Z,99706.88
2019-03-26T08:27:41.660Z,99711.52
2019-03-26T08:30:08.644Z,99711.21
2019-03-26T08:32:37.025Z,99717.20
2019-03-26T08:35:04.577Z,99710.91
2019-03-26T08:37:31.510Z,99723.47
2019-03-26T08:39:58.403Z,99715.30
2019-03-26T08:42:25.312Z,99719.66
2019-03-26T08:44:52.234Z,99715.19
2019-03-26T08:47:19.180Z,99713.61
2019-03-26T08:49:46.102Z,99706.55
2019-03-26T08:52:12.862Z,99710.42
2019-03-26T08:54:39.758Z,99705.31
2019-03-26T08:57:06.820Z,99708.81
2019-03-26T08:59:33.888Z,99710.90
2019-03-26T09:02:01.289Z,99700.22
2019-03-26T09:04:28.149Z,99700.06
2019-03-26T09:06:55.076Z,99711.08
2019-03-26T09:09:22.011Z,99714.27
2019-03-26T09:11:49.449Z,99711.87
2019-03-26T09:14:16.947Z,99712.10
2019-03-26T09:16:43.879Z,99712.57
2019-03-26T09:19:10.791Z,99714.36
2019-03-26T09:21:37.624Z,99699.41
2019-03-26T09:24:04.627Z,99706.34
2019-03-26T09:26:31.675Z,99705.52
2019-03-26T09:28:58.511Z,99703.40
2019-03-26T09:31:25.446Z,99703.88
2019-03-26T09:33:54.964Z,99689.38
2019-03-26T09:36:21.836Z,99691.94
2019-03-26T09:38:48.706Z,99688.98
2019-03-26T09:41:15.699Z,99699.62
2019-03-26T09:43:42.559Z,99687.30
2019-03-26T09:46:11.639Z,99696.97
2019-03-26T09:48:38.461Z,99701.86
2019-03-26T09:51:05.577Z,99700.78
2019-03-26T09:53:32.349Z,99697.78
2019-03-26T09:55:59.174Z,99709.11
2019-03-26T09:58:26.415Z,99703.28
2019-03-26T10:00:53.247Z,99708.41
2019-03-26T10:03:22.558Z,99702.06
2019-03-26T10:05:49.455Z,99712.73
2019-03-26T10:08:18.023Z,99698.34
2019-03-26T10:10:45.113Z,99708.55
2019-03-26T10:13:12.071Z,99703.98
2019-03-26T10:15:39.018Z,99705.22
2019-03-26T10:18:05.951Z,99694.29
2019-03-26T10:20:33.252Z,99700.28
2019-03-26T10:23:00.324Z,99691.08
2019-03-26T10:25:27.340Z,99680.72
2019-03-26T10:27:54.252Z,99707.23
2019-03-26T10:30:36.289Z,99697.30
2019-03-26T10:33:03.485Z,99686.42
2019-03-26T10:35:30.589Z,99685.67
2019-03-26T10:37:57.655Z,99688.02
2019-03-26T10:40:32.283Z,99667.89
2019-03-26T10:42:59.816Z,99667.52
2019-03-26T10:45:26.758Z,99672.18
2019-03-26T10:47:53.698Z,99662.23
2019-03-26T10:50:20.720Z,99670.72
2019-03-26T10:52:47.665Z,99669.42
2019-03-26T10:55:14.550Z,99675.27
2019-03-26T10:57:41.619Z,99666.63
2019-03-26T11:00:09.032Z,99664.81
2019-03-26T11:02:36.005Z,99668.52
2019-03-26T11:05:04.649Z,99658.33
2019-03-26T11:07:31.621Z,99651.41
2019-03-26T11:09:59.115Z,99664.64
2019-03-26T11:12:26.110Z,99651.48
2019-03-26T11:14:53.299Z,99668.97
2019-03-26T11:17:20.316Z,99667.15
2019-03-26T11:19:47.141Z,99656.85
2019-03-26T11:22:14.393Z,99671.02
2019-03-26T11:24:41.627Z,99667.80
2019-03-26T11:27:08.732Z,99659.13
2019-03-26T11:29:35.616Z,99657.08
2019-03-26T11:32:02.502Z,99661.55
2019-03-26T11:34:29.427Z,99648.55
2019-03-26T11:36:56.371Z,99646.92
2019-03-26T11:39:32.582Z,99652.04
2019-03-26T11:41:52.285Z,99638.91
2019-03-26T11:44:19.166Z,99632.11
2019-03-26T11:46:46.104Z,99636.41
2019-03-26T11:49:12.958Z,99627.81
2019-03-26T11:51:39.910Z,99622.15
2019-03-26T11:54:06.773Z,99618.47
2019-03-26T11:56:33.705Z,99613.46
2019-03-26T11:59:00.732Z,99609.14
2019-03-26T12:01:27.584Z,99600.55
2019-03-26T12:03:54.458Z,99595.61
2019-03-26T12:06:21.378Z,99583.98
2019-03-26T12:08:48.607Z,99588.82
2019-03-26T12:11:15.515Z,99571.22
2019-03-26T12:13:42.502Z,99571.44
2019-03-26T12:16:09.382Z,99574.09
2019-03-26T12:18:36.385Z,99575.17
2019-03-26T12:21:03.874Z,99568.28
2019-03-26T12:23:30.823Z,99575.58
2019-03-26T12:25:57.737Z,99579.52
2019-03-26T12:28:24.584Z,99582.94
2019-03-26T12:30:51.524Z,99574.62
2019-03-26T12:33:18.354Z,99581.37
2019-03-26T12:35:45.479Z,99571.09
2019-03-26T12:38:18.510Z,99579.52
2019-03-26T12:40:45.633Z,99564.30
2019-03-26T12:43:12.657Z,99572.49
2019-03-26T12:45:39.602Z,99562.45
2019-03-26T12:48:06.432Z,99569.67
2019-03-26T12:50:33.386Z,99560.53
